Time;durP1;ratioP1;P1;durP2;ratioP2;P2;SDS_P1;SDS_P2;PMS_P1;PMS_P2;Temp;Humidity;BMP_temperature;BMP_pressure;BME280_temperature;BME280_humidity;BME280_pressure;Samples;Min_cycle;Max_cycle;Signal;HPM_P1;HPM_P2
2021/04/12 18:01:01;;;;;;;1.33;1.13;;;6.70;99.90;;;;;;5089430;27;20667;-75
2021/04/12 18:03:32;;;;;;;2.17;1.30;;;6.50;99.90;;;;;;5089623;28;20568;-77
2021/04/12 18:05:57;;;;;;;1.57;1.17;;;6.40;99.90;;;;;;5089876;28;20188;-74
2021/04/12 18:08:37;;;;;;;3.37;1.50;;;6.40;99.90;;;;;;5089832;28;20196;-74
2021/04/12 18:11:07;;;;;;;1.70;1.10;;;6.30;99.90;;;;;;5089376;28;20657;-79
2021/04/12 18:13:39;;;;;;;3.13;1.20;;;6.30;99.90;;;;;;5090108;28;20637;-75
2021/04/12 18:16:18;;;;;;;1.40;1.13;;;6.20;99.90;;;;;;5088343;28;20176;-76
2021/04/12 18:18:46;;;;;;;2.23;1.00;;;6.20;99.90;;;;;;5090155;28;20223;-77
2021/04/12 18:21:21;;;;;;;2.00;1.10;;;6.20;99.90;;;;;;5089712;28;20175;-79
2021/04/12 18:23:48;;;;;;;1.33;1.00;;;6.20;99.90;;;;;;5090609;28;20325;-77
2021/04/12 18:26:20;;;;;;;2.77;1.10;;;6.20;99.90;;;;;;5092554;28;20749;-77
2021/04/12 18:28:58;;;;;;;1.27;1.10;;;6.20;99.90;;;;;;5090551;28;20242;-77
2021/04/12 18:31:33;;;;;;;3.53;2.10;;;6.20;99.90;;;;;;5089398;28;20175;-77
2021/04/12 18:33:58;;;;;;;4.17;2.00;;;6.20;99.90;;;;;;5089243;28;20621;-77
2021/04/12 18:36:32;;;;;;;3.83;1.60;;;6.20;99.90;;;;;;5089793;28;20259;-77
2021/04/12 18:39:40;;;;;;;1.40;1.30;;;6.20;99.90;;;;;;5092374;28;20206;-76
2021/04/12 18:42:38;;;;;;;3.10;1.37;;;6.20;99.90;;;;;;5087068;28;20200;-78
2021/04/12 18:45:42;;;;;;;4.03;2.10;;;6.20;99.90;;;;;;5090361;28;20216;-77
2021/04/12 18:48:16;;;;;;;2.83;1.83;;;6.20;99.90;;;;;;5088684;28;20196;-76
2021/04/12 18:50:54;;;;;;;2.40;1.67;;;6.20;99.90;;;;;;5088779;28;20185;-75
2021/04/12 18:53:21;;;;;;;2.37;1.50;;;6.10;99.90;;;;;;5088609;28;20241;-75
2021/04/12 18:55:57;;;;;;;2.73;1.70;;;6.10;99.90;;;;;;5089016;28;20267;-75
2021/04/12 18:58:38;;;;;;;3.33;1.93;;;6.10;99.90;;;;;;5088301;28;20306;-76
2021/04/12 19:01:28;;;;;;;2.03;1.67;;;6.00;99.90;;;;;;5090036;28;20168;-75
2021/04/12 19:04:29;;;;;;;3.13;1.87;;;6.00;99.90;;;;;;5089170;28;20180;-76
2021/04/12 19:07:30;;;;;;;3.33;1.80;;;6.00;99.90;;;;;;5090819;28;20192;-74
2021/04/12 19:10:20;;;;;;;2.10;1.90;;;5.90;99.90;;;;;;5097231;28;20164;-76
2021/04/12 19:12:54;;;;;;;1.93;1.73;;;5.90;99.90;;;;;;5097100;28;20186;-78
2021/04/12 19:15:27;;;;;;;2.93;2.63;;;5.80;99.90;;;;;;5098114;28;20156;-82
2021/04/12 19:18:14;;;;;;;2.93;2.13;;;5.80;99.90;;;;;;5100684;28;20200;-81
2021/04/12 19:21:07;;;;;;;2.73;2.33;;;5.80;99.90;;;;;;5100164;28;20248;-80
2021/04/12 19:23:55;;;;;;;4.40;1.90;;;5.80;99.90;;;;;;5095103;28;20154;-77
2021/04/12 19:26:41;;;;;;;4.87;2.37;;;5.70;99.90;;;;;;5098312;28;20247;-79
2021/04/12 19:29:27;;;;;;;4.70;2.17;;;5.80;99.90;;;;;;5097333;28;20161;-74
2021/04/12 19:32:12;;;;;;;4.53;2.47;;;5.80;99.90;;;;;;5097333;28;20188;-76
2021/04/12 19:34:48;;;;;;;5.80;2.40;;;5.90;99.90;;;;;;5100283;28;20217;-78
2021/04/12 19:37:44;;;;;;;3.30;1.80;;;5.80;99.90;;;;;;5099421;28;20251;-72
2021/04/12 19:40:15;;;;;;;1.47;1.20;;;5.60;99.90;;;;;;5096532;28;20234;-77
2021/04/12 19:43:04;;;;;;;1.40;1.30;;;5.60;99.90;;;;;;5095288;28;20188;-75
2021/04/12 19:45:49;;;;;;;1.83;1.37;;;5.50;99.90;;;;;;5085502;28;20166;-76
2021/04/12 19:48:37;;;;;;;1.33;1.07;;;5.40;99.90;;;;;;5075904;28;20207;-76
2021/04/12 19:51:08;;;;;;;3.43;1.40;;;5.50;99.90;;;;;;5077451;28;20175;-76
2021/04/12 19:54:09;;;;;;;2.43;1.40;;;5.50;99.90;;;;;;5076294;28;20188;-76
2021/04/12 19:56:44;;;;;;;1.53;1.37;;;5.50;99.90;;;;;;5065636;28;20184;-75
2021/04/12 19:59:37;;;;;;;1.57;1.07;;;5.50;99.90;;;;;;5079102;28;20215;-78
2021/04/12 20:02:22;;;;;;;1.00;1.00;;;5.40;99.90;;;;;;5070776;28;20808;-76
